sensor_id;sensor_type;location;lat;lon;timestamp;temperature;humidity
70074;DHT22;57445;51.058;3.698;2022-12-18T00:02:13;0.20;99.30
70074;DHT22;57445;51.058;3.698;2022-12-18T00:04:40;0.20;99.20
70074;DHT22;57445;51.058;3.698;2022-12-18T00:07:12;0.10;99.30
70074;DHT22;57445;51.058;3.698;2022-12-18T00:09:39;0.20;99.50
70074;DHT22;57445;51.058;3.698;2022-12-18T00:12:11;0.40;99.60
70074;DHT22;57445;51.058;3.698;2022-12-18T00:14:45;0.10;99.30
70074;DHT22;57445;51.058;3.698;2022-12-18T00:17:12;0.10;99.20
70074;DHT22;57445;51.058;3.698;2022-12-18T00:19:44;0.00;99.30
70074;DHT22;57445;51.058;3.698;2022-12-18T00:22:16;0.00;99.20
70074;DHT22;57445;51.058;3.698;2022-12-18T00:24:48;-0.10;99.30
70074;DHT22;57445;51.058;3.698;2022-12-18T00:27:16;-0.10;99.30
70074;DHT22;57445;51.058;3.698;2022-12-18T00:29:44;-0.10;99.30
70074;DHT22;57445;51.058;3.698;2022-12-18T00:32:16;-0.10;99.20
70074;DHT22;57445;51.058;3.698;2022-12-18T00:34:44;-0.10;99.10
70074;DHT22;57445;51.058;3.698;2022-12-18T00:37:11;-0.30;99.10
70074;DHT22;57445;51.058;3.698;2022-12-18T00:39:43;-0.30;99.20
70074;DHT22;57445;51.058;3.698;2022-12-18T00:42:10;-0.30;99.10
70074;DHT22;57445;51.058;3.698;2022-12-18T00:45:01;-0.30;99.10
70074;DHT22;57445;51.058;3.698;2022-12-18T00:47:29;-0.30;99.10
70074;DHT22;57445;51.058;3.698;2022-12-18T00:49:56;0.10;99.10
70074;DHT22;57445;51.058;3.698;2022-12-18T00:52:28;-0.40;99.10
70074;DHT22;57445;51.058;3.698;2022-12-18T00:54:55;-0.40;98.90
70074;DHT22;57445;51.058;3.698;2022-12-18T00:57:23;-0.40;99.00
70074;DHT22;57445;51.058;3.698;2022-12-18T00:59:55;-0.40;99.00
70074;DHT22;57445;51.058;3.698;2022-12-18T01:02:23;-0.40;98.90
70074;DHT22;57445;51.058;3.698;2022-12-18T01:04:55;-0.40;98.90
70074;DHT22;57445;51.058;3.698;2022-12-18T01:07:27;-0.40;99.00
70074;DHT22;57445;51.058;3.698;2022-12-18T01:09:55;-0.50;99.00
70074;DHT22;57445;51.058;3.698;2022-12-18T01:12:22;-0.50;99.10
70074;DHT22;57445;51.058;3.698;2022-12-18T01:14:50;-0.50;99.10
70074;DHT22;57445;51.058;3.698;2022-12-18T01:17:22;-0.50;99.20
70074;DHT22;57445;51.058;3.698;2022-12-18T01:19:55;-0.50;99.20
70074;DHT22;57445;51.058;3.698;2022-12-18T01:22:27;-0.50;99.00
70074;DHT22;57445;51.058;3.698;2022-12-18T01:24:59;-0.50;99.00
70074;DHT22;57445;51.058;3.698;2022-12-18T01:27:31;-0.50;99.00
70074;DHT22;57445;51.058;3.698;2022-12-18T01:29:58;-0.50;99.00
70074;DHT22;57445;51.058;3.698;2022-12-18T01:32:26;-0.40;99.00
70074;DHT22;57445;51.058;3.698;2022-12-18T01:34:59;-0.50;98.80
70074;DHT22;57445;51.058;3.698;2022-12-18T01:37:31;-0.40;98.70
70074;DHT22;57445;51.058;3.698;2022-12-18T01:40:03;-0.40;98.60
70074;DHT22;57445;51.058;3.698;2022-12-18T01:42:36;-0.50;98.50
70074;DHT22;57445;51.058;3.698;2022-12-18T01:45:05;-0.50;98.60
70074;DHT22;57445;51.058;3.698;2022-12-18T01:47:39;-0.60;98.70
70074;DHT22;57445;51.058;3.698;2022-12-18T01:50:13;-0.60;98.60
70074;DHT22;57445;51.058;3.698;2022-12-18T01:52:46;-0.60;98.30
70074;DHT22;57445;51.058;3.698;2022-12-18T01:55:15;-0.60;98.40
70074;DHT22;57445;51.058;3.698;2022-12-18T01:57:43;-0.60;98.30
70074;DHT22;57445;51.058;3.698;2022-12-18T02:00:17;-0.70;98.30
70074;DHT22;57445;51.058;3.698;2022-12-18T02:02:46;-0.70;98.30
70074;DHT22;57445;51.058;3.698;2022-12-18T02:05:22;-0.70;98.30
70074;DHT22;57445;51.058;3.698;2022-12-18T02:07:54;-0.80;98.30
70074;DHT22;57445;51.058;3.698;2022-12-18T02:10:29;-0.70;98.30
70074;DHT22;57445;51.058;3.698;2022-12-18T02:13:07;-0.80;98.20
70074;DHT22;57445;51.058;3.698;2022-12-18T02:15:38;-0.90;98.30
70074;DHT22;57445;51.058;3.698;2022-12-18T02:18:07;-0.80;98.30
70074;DHT22;57445;51.058;3.698;2022-12-18T02:20:38;-0.80;98.20
70074;DHT22;57445;51.058;3.698;2022-12-18T02:23:11;-0.90;98.30
70074;DHT22;57445;51.058;3.698;2022-12-18T02:26:04;-1.00;98.40
70074;DHT22;57445;51.058;3.698;2022-12-18T02:28:39;-1.20;98.50
70074;DHT22;57445;51.058;3.698;2022-12-18T02:31:13;-0.90;98.50
70074;DHT22;57445;51.058;3.698;2022-12-18T02:33:46;-0.80;98.20
70074;DHT22;57445;51.058;3.698;2022-12-18T02:36:19;-0.80;98.30
70074;DHT22;57445;51.058;3.698;2022-12-18T02:38:47;-0.90;98.00
70074;DHT22;57445;51.058;3.698;2022-12-18T02:41:16;-0.90;98.00
70074;DHT22;57445;51.058;3.698;2022-12-18T02:43:53;-0.80;98.00
70074;DHT22;57445;51.058;3.698;2022-12-18T02:46:27;-0.80;97.80
70074;DHT22;57445;51.058;3.698;2022-12-18T02:48:57;-0.80;97.90
70074;DHT22;57445;51.058;3.698;2022-12-18T02:51:27;-0.80;97.80
70074;DHT22;57445;51.058;3.698;2022-12-18T02:54:02;-0.90;97.80
70074;DHT22;57445;51.058;3.698;2022-12-18T02:56:34;-1.00;97.90
70074;DHT22;57445;51.058;3.698;2022-12-18T02:59:04;-1.10;98.00
70074;DHT22;57445;51.058;3.698;2022-12-18T03:01:36;-1.10;98.00
70074;DHT22;57445;51.058;3.698;2022-12-18T03:04:11;-0.70;98.00
70074;DHT22;57445;51.058;3.698;2022-12-18T03:06:40;-1.10;97.80
70074;DHT22;57445;51.058;3.698;2022-12-18T03:09:10;-1.00;97.70
70074;DHT22;57445;51.058;3.698;2022-12-18T03:11:46;-1.10;97.70
70074;DHT22;57445;51.058;3.698;2022-12-18T03:14:37;-1.10;97.90
70074;DHT22;57445;51.058;3.698;2022-12-18T03:17:13;-1.10;97.80
70074;DHT22;57445;51.058;3.698;2022-12-18T03:19:42;-1.20;97.90
70074;DHT22;57445;51.058;3.698;2022-12-18T03:22:10;-1.20;98.10
70074;DHT22;57445;51.058;3.698;2022-12-18T03:24:44;-1.20;98.00
70074;DHT22;57445;51.058;3.698;2022-12-18T03:27:17;-1.20;97.90
70074;DHT22;57445;51.058;3.698;2022-12-18T03:29:45;-1.20;97.80
70074;DHT22;57445;51.058;3.698;2022-12-18T03:32:20;-1.10;97.70
70074;DHT22;57445;51.058;3.698;2022-12-18T03:34:56;-1.10;97.60
70074;DHT22;57445;51.058;3.698;2022-12-18T03:37:32;-1.10;97.50
70074;DHT22;57445;51.058;3.698;2022-12-18T03:39:59;-1.10;97.50
70074;DHT22;57445;51.058;3.698;2022-12-18T03:42:29;-1.10;97.40
70074;DHT22;57445;51.058;3.698;2022-12-18T03:44:59;-1.20;97.40
70074;DHT22;57445;51.058;3.698;2022-12-18T03:47:34;-1.20;97.50
70074;DHT22;57445;51.058;3.698;2022-12-18T03:50:10;-1.20;97.50
70074;DHT22;57445;51.058;3.698;2022-12-18T03:52:47;-1.20;97.30
70074;DHT22;57445;51.058;3.698;2022-12-18T03:55:16;-1.20;97.20
70074;DHT22;57445;51.058;3.698;2022-12-18T03:57:46;-1.30;97.20
70074;DHT22;57445;51.058;3.698;2022-12-18T04:00:15;-1.30;97.30
70074;DHT22;57445;51.058;3.698;2022-12-18T04:02:44;-1.30;97.40
70074;DHT22;57445;51.058;3.698;2022-12-18T04:05:13;-1.30;97.40
70074;DHT22;57445;51.058;3.698;2022-12-18T04:07:45;-1.30;97.40
70074;DHT22;57445;51.058;3.698;2022-12-18T04:10:18;-1.30;97.30
70074;DHT22;57445;51.058;3.698;2022-12-18T04:12:51;-1.30;97.20
70074;DHT22;57445;51.058;3.698;2022-12-18T04:15:27;-1.30;97.10
70074;DHT22;57445;51.058;3.698;2022-12-18T04:17:54;-1.20;97.00
70074;DHT22;57445;51.058;3.698;2022-12-18T04:20:21;-1.30;97.00
70074;DHT22;57445;51.058;3.698;2022-12-18T04:22:49;-1.30;97.30
70074;DHT22;57445;51.058;3.698;2022-12-18T04:25:21;-1.40;97.20
70074;DHT22;57445;51.058;3.698;2022-12-18T04:27:54;-1.30;97.10
70074;DHT22;57445;51.058;3.698;2022-12-18T04:30:22;-1.10;97.10
70074;DHT22;57445;51.058;3.698;2022-12-18T04:32:49;-1.40;97.10
70074;DHT22;57445;51.058;3.698;2022-12-18T04:35:21;-1.40;97.10
70074;DHT22;57445;51.058;3.698;2022-12-18T04:37:53;-1.50;97.20
70074;DHT22;57445;51.058;3.698;2022-12-18T04:40:21;-1.50;97.20
70074;DHT22;57445;51.058;3.698;2022-12-18T04:42:48;-1.60;97.30
70074;DHT22;57445;51.058;3.698;2022-12-18T04:45:17;-1.60;97.40
70074;DHT22;57445;51.058;3.698;2022-12-18T04:47:49;-1.50;97.30
70074;DHT22;57445;51.058;3.698;2022-12-18T04:50:21;-1.50;97.10
70074;DHT22;57445;51.058;3.698;2022-12-18T04:52:48;-1.60;97.10
70074;DHT22;57445;51.058;3.698;2022-12-18T04:55:20;-1.60;97.20
70074;DHT22;57445;51.058;3.698;2022-12-18T04:57:55;-1.70;97.30
70074;DHT22;57445;51.058;3.698;2022-12-18T05:00:28;-1.60;97.30
70074;DHT22;57445;51.058;3.698;2022-12-18T05:03:00;-1.60;97.20
70074;DHT22;57445;51.058;3.698;2022-12-18T05:05:28;-1.60;97.00
70074;DHT22;57445;51.058;3.698;2022-12-18T05:07:56;-1.60;97.10
70074;DHT22;57445;51.058;3.698;2022-12-18T05:10:23;-1.70;97.10
70074;DHT22;57445;51.058;3.698;2022-12-18T05:12:51;-1.60;97.10
70074;DHT22;57445;51.058;3.698;2022-12-18T05:15:29;-1.60;97.00
70074;DHT22;57445;51.058;3.698;2022-12-18T05:18:02;-1.50;96.90
70074;DHT22;57445;51.058;3.698;2022-12-18T05:20:35;-1.50;96.80
70074;DHT22;57445;51.058;3.698;2022-12-18T05:23:02;-1.60;96.80
70074;DHT22;57445;51.058;3.698;2022-12-18T05:25:34;-1.60;96.90
70074;DHT22;57445;51.058;3.698;2022-12-18T05:28:01;-1.60;97.00
70074;DHT22;57445;51.058;3.698;2022-12-18T05:30:35;-1.50;96.80
70074;DHT22;57445;51.058;3.698;2022-12-18T05:33:07;-1.50;96.70
70074;DHT22;57445;51.058;3.698;2022-12-18T05:35:39;-1.50;96.60
70074;DHT22;57445;51.058;3.698;2022-12-18T05:38:11;-1.50;96.60
70074;DHT22;57445;51.058;3.698;2022-12-18T05:40:41;-1.50;96.60
70074;DHT22;57445;51.058;3.698;2022-12-18T05:43:13;-1.50;96.60
70074;DHT22;57445;51.058;3.698;2022-12-18T05:45:47;-1.50;96.70
70074;DHT22;57445;51.058;3.698;2022-12-18T05:48:19;-1.40;96.40
70074;DHT22;57445;51.058;3.698;2022-12-18T05:50:51;-1.30;96.20
70074;DHT22;57445;51.058;3.698;2022-12-18T05:53:23;-1.30;96.10
70074;DHT22;57445;51.058;3.698;2022-12-18T05:55:51;-1.20;95.80
70074;DHT22;57445;51.058;3.698;2022-12-18T05:58:23;-1.30;95.90
70074;DHT22;57445;51.058;3.698;2022-12-18T06:00:52;-1.20;95.70
70074;DHT22;57445;51.058;3.698;2022-12-18T06:03:24;-1.20;95.60
70074;DHT22;57445;51.058;3.698;2022-12-18T06:05:51;-1.00;95.70
70074;DHT22;57445;51.058;3.698;2022-12-18T06:08:23;-1.20;95.70
70074;DHT22;57445;51.058;3.698;2022-12-18T06:10:51;-1.30;95.60
70074;DHT22;57445;51.058;3.698;2022-12-18T06:13:20;-1.30;95.70
70074;DHT22;57445;51.058;3.698;2022-12-18T06:15:53;-1.40;95.90
70074;DHT22;57445;51.058;3.698;2022-12-18T06:18:20;-1.40;95.90
70074;DHT22;57445;51.058;3.698;2022-12-18T06:20:54;-1.30;95.60
70074;DHT22;57445;51.058;3.698;2022-12-18T06:23:26;-1.20;95.50
70074;DHT22;57445;51.058;3.698;2022-12-18T06:25:53;-1.20;95.20
70074;DHT22;57445;51.058;3.698;2022-12-18T06:28:25;-1.20;95.30
70074;DHT22;57445;51.058;3.698;2022-12-18T06:30:59;-1.30;95.40
70074;DHT22;57445;51.058;3.698;2022-12-18T06:33:31;-1.30;95.50
70074;DHT22;57445;51.058;3.698;2022-12-18T06:36:03;-1.30;95.40
70074;DHT22;57445;51.058;3.698;2022-12-18T06:38:31;-1.30;95.60
70074;DHT22;57445;51.058;3.698;2022-12-18T06:40:59;-1.30;95.60
70074;DHT22;57445;51.058;3.698;2022-12-18T06:43:26;-1.30;95.30
70074;DHT22;57445;51.058;3.698;2022-12-18T06:45:58;-1.30;95.40
70074;DHT22;57445;51.058;3.698;2022-12-18T06:48:30;-1.20;95.60
70074;DHT22;57445;51.058;3.698;2022-12-18T06:50:58;-1.30;95.50
70074;DHT22;57445;51.058;3.698;2022-12-18T06:53:25;-1.30;95.30
70074;DHT22;57445;51.058;3.698;2022-12-18T06:55:58;-1.20;95.30
70074;DHT22;57445;51.058;3.698;2022-12-18T06:58:32;-0.80;95.40
70074;DHT22;57445;51.058;3.698;2022-12-18T07:01:06;-1.10;95.10
70074;DHT22;57445;51.058;3.698;2022-12-18T07:03:38;-1.20;94.90
70074;DHT22;57445;51.058;3.698;2022-12-18T07:06:13;-1.20;95.10
70074;DHT22;57445;51.058;3.698;2022-12-18T07:08:46;-1.30;95.20
70074;DHT22;57445;51.058;3.698;2022-12-18T07:11:19;-1.20;95.00
70074;DHT22;57445;51.058;3.698;2022-12-18T07:13:52;-1.40;95.20
70074;DHT22;57445;51.058;3.698;2022-12-18T07:16:25;-1.40;95.30
70074;DHT22;57445;51.058;3.698;2022-12-18T07:18:54;-1.30;95.10
70074;DHT22;57445;51.058;3.698;2022-12-18T07:21:22;-1.40;95.10
70074;DHT22;57445;51.058;3.698;2022-12-18T07:23:50;-1.40;94.90
70074;DHT22;57445;51.058;3.698;2022-12-18T07:26:23;-1.40;94.90
70074;DHT22;57445;51.058;3.698;2022-12-18T07:28:54;-1.40;95.00
70074;DHT22;57445;51.058;3.698;2022-12-18T07:31:28;-1.40;94.90
70074;DHT22;57445;51.058;3.698;2022-12-18T07:33:56;-1.50;95.00
70074;DHT22;57445;51.058;3.698;2022-12-18T07:36:23;-1.60;95.10
70074;DHT22;57445;51.058;3.698;2022-12-18T07:38:56;-1.50;95.20
70074;DHT22;57445;51.058;3.698;2022-12-18T07:41:24;-1.50;95.10
70074;DHT22;57445;51.058;3.698;2022-12-18T07:43:52;-1.20;95.00
70074;DHT22;57445;51.058;3.698;2022-12-18T07:46:24;-1.50;95.00
70074;DHT22;57445;51.058;3.698;2022-12-18T07:48:53;-1.50;95.20
70074;DHT22;57445;51.058;3.698;2022-12-18T07:51:20;-1.50;94.90
70074;DHT22;57445;51.058;3.698;2022-12-18T07:53:48;-1.60;94.90
70074;DHT22;57445;51.058;3.698;2022-12-18T07:56:16;-1.60;95.20
70074;DHT22;57445;51.058;3.698;2022-12-18T07:58:46;-1.60;95.10
70074;DHT22;57445;51.058;3.698;2022-12-18T08:01:14;-1.50;94.90
70074;DHT22;57445;51.058;3.698;2022-12-18T08:03:42;-1.50;94.90
70074;DHT22;57445;51.058;3.698;2022-12-18T08:06:15;-1.60;95.00
70074;DHT22;57445;51.058;3.698;2022-12-18T08:08:43;-1.60;95.10
70074;DHT22;57445;51.058;3.698;2022-12-18T08:11:10;-1.50;95.10
70074;DHT22;57445;51.058;3.698;2022-12-18T08:13:38;-1.40;95.00
70074;DHT22;57445;51.058;3.698;2022-12-18T08:16:06;-1.30;94.80
70074;DHT22;57445;51.058;3.698;2022-12-18T08:18:34;-1.30;94.60
70074;DHT22;57445;51.058;3.698;2022-12-18T08:21:07;-1.30;94.70
70074;DHT22;57445;51.058;3.698;2022-12-18T08:23:44;-1.20;94.60
70074;DHT22;57445;51.058;3.698;2022-12-18T08:26:12;-1.10;94.50
70074;DHT22;57445;51.058;3.698;2022-12-18T08:28:40;-1.00;94.40
70074;DHT22;57445;51.058;3.698;2022-12-18T08:31:12;-0.80;94.30
70074;DHT22;57445;51.058;3.698;2022-12-18T08:33:40;-0.70;94.00
70074;DHT22;57445;51.058;3.698;2022-12-18T08:36:08;-0.60;93.90
70074;DHT22;57445;51.058;3.698;2022-12-18T08:38:36;-0.50;93.60
70074;DHT22;57445;51.058;3.698;2022-12-18T08:41:10;-0.40;93.40
70074;DHT22;57445;51.058;3.698;2022-12-18T08:43:38;-0.30;93.40
70074;DHT22;57445;51.058;3.698;2022-12-18T08:46:23;-0.30;93.40
70074;DHT22;57445;51.058;3.698;2022-12-18T08:48:56;-0.20;93.20
70074;DHT22;57445;51.058;3.698;2022-12-18T08:51:24;0.00;92.90
70074;DHT22;57445;51.058;3.698;2022-12-18T08:53:51;0.00;92.50
70074;DHT22;57445;51.058;3.698;2022-12-18T08:56:20;0.10;92.60
70074;DHT22;57445;51.058;3.698;2022-12-18T08:58:52;0.10;92.50
70074;DHT22;57445;51.058;3.698;2022-12-18T09:01:20;0.10;92.40
70074;DHT22;57445;51.058;3.698;2022-12-18T09:03:52;0.10;92.60
70074;DHT22;57445;51.058;3.698;2022-12-18T09:06:24;0.20;92.60
70074;DHT22;57445;51.058;3.698;2022-12-18T09:08:52;0.30;92.30
70074;DHT22;57445;51.058;3.698;2022-12-18T09:11:21;0.30;92.50
70074;DHT22;57445;51.058;3.698;2022-12-18T09:13:49;0.40;92.30
70074;DHT22;57445;51.058;3.698;2022-12-18T09:16:17;0.40;92.20
70074;DHT22;57445;51.058;3.698;2022-12-18T09:18:50;0.40;92.40
70074;DHT22;57445;51.058;3.698;2022-12-18T09:21:21;0.50;92.40
70074;DHT22;57445;51.058;3.698;2022-12-18T09:23:54;0.80;92.00
70074;DHT22;57445;51.058;3.698;2022-12-18T09:26:23;0.70;91.90
70074;DHT22;57445;51.058;3.698;2022-12-18T09:28:56;0.70;91.80
70074;DHT22;57445;51.058;3.698;2022-12-18T09:31:23;0.80;91.60
70074;DHT22;57445;51.058;3.698;2022-12-18T09:33:51;0.80;91.70
70074;DHT22;57445;51.058;3.698;2022-12-18T09:36:19;0.90;91.60
70074;DHT22;57445;51.058;3.698;2022-12-18T09:38:51;1.20;91.70
70074;DHT22;57445;51.058;3.698;2022-12-18T09:41:31;1.00;91.50
70074;DHT22;57445;51.058;3.698;2022-12-18T09:44:00;1.00;91.50
70074;DHT22;57445;51.058;3.698;2022-12-18T09:46:29;1.10;91.50
70074;DHT22;57445;51.058;3.698;2022-12-18T09:48:58;1.10;91.40
70074;DHT22;57445;51.058;3.698;2022-12-18T09:51:27;1.20;91.40
70074;DHT22;57445;51.058;3.698;2022-12-18T09:54:01;1.20;91.30
70074;DHT22;57445;51.058;3.698;2022-12-18T09:56:36;1.70;91.10
70074;DHT22;57445;51.058;3.698;2022-12-18T09:59:09;1.30;91.20
70074;DHT22;57445;51.058;3.698;2022-12-18T10:01:42;1.40;91.20
70074;DHT22;57445;51.058;3.698;2022-12-18T10:04:15;1.40;91.10
70074;DHT22;57445;51.058;3.698;2022-12-18T10:06:49;1.40;91.10
70074;DHT22;57445;51.058;3.698;2022-12-18T10:09:23;1.40;91.20
70074;DHT22;57445;51.058;3.698;2022-12-18T10:11:55;1.40;91.30
70074;DHT22;57445;51.058;3.698;2022-12-18T10:14:29;1.40;91.10
70074;DHT22;57445;51.058;3.698;2022-12-18T10:17:03;1.40;91.20
70074;DHT22;57445;51.058;3.698;2022-12-18T10:19:39;1.50;91.20
70074;DHT22;57445;51.058;3.698;2022-12-18T10:22:16;1.60;90.90
70074;DHT22;57445;51.058;3.698;2022-12-18T10:24:53;1.60;91.10
70074;DHT22;57445;51.058;3.698;2022-12-18T10:27:27;1.50;91.30
70074;DHT22;57445;51.058;3.698;2022-12-18T10:29:56;1.60;91.40
70074;DHT22;57445;51.058;3.698;2022-12-18T10:32:25;2.10;91.40
70074;DHT22;57445;51.058;3.698;2022-12-18T10:34:58;1.70;91.00
70074;DHT22;57445;51.058;3.698;2022-12-18T10:37:30;1.70;91.30
70074;DHT22;57445;51.058;3.698;2022-12-18T10:40:11;1.80;91.00
70074;DHT22;57445;51.058;3.698;2022-12-18T10:42:40;1.90;90.90
70074;DHT22;57445;51.058;3.698;2022-12-18T10:45:11;1.90;91.20
70074;DHT22;57445;51.058;3.698;2022-12-18T10:47:43;1.90;91.20
70074;DHT22;57445;51.058;3.698;2022-12-18T10:50:18;1.80;91.30
70074;DHT22;57445;51.058;3.698;2022-12-18T10:52:52;1.90;91.10
70074;DHT22;57445;51.058;3.698;2022-12-18T10:55:26;1.90;91.20
70074;DHT22;57445;51.058;3.698;2022-12-18T11:00:47;2.10;90.90
70074;DHT22;57445;51.058;3.698;2022-12-18T11:03:29;2.20;91.00
70074;DHT22;57445;51.058;3.698;2022-12-18T11:06:07;2.30;90.80
70074;DHT22;57445;51.058;3.698;2022-12-18T11:08:40;2.40;90.70
70074;DHT22;57445;51.058;3.698;2022-12-18T11:11:15;2.60;90.40
70074;DHT22;57445;51.058;3.698;2022-12-18T11:13:51;2.60;90.40
70074;DHT22;57445;51.058;3.698;2022-12-18T11:16:23;2.70;90.40
70074;DHT22;57445;51.058;3.698;2022-12-18T11:18:51;2.70;90.50
70074;DHT22;57445;51.058;3.698;2022-12-18T11:21:18;2.80;90.50
70074;DHT22;57445;51.058;3.698;2022-12-18T11:23:51;2.70;90.50
70074;DHT22;57445;51.058;3.698;2022-12-18T11:26:19;2.70;90.50
70074;DHT22;57445;51.058;3.698;2022-12-18T11:28:48;2.70;90.70
70074;DHT22;57445;51.058;3.698;2022-12-18T11:31:21;2.80;91.00
70074;DHT22;57445;51.058;3.698;2022-12-18T11:36:33;2.40;91.40
70074;DHT22;57445;51.058;3.698;2022-12-18T11:39:03;2.70;91.50
70074;DHT22;57445;51.058;3.698;2022-12-18T11:41:38;2.70;91.10
70074;DHT22;57445;51.058;3.698;2022-12-18T11:44:28;2.80;90.90
70074;DHT22;57445;51.058;3.698;2022-12-18T11:47:03;2.80;90.70
70074;DHT22;57445;51.058;3.698;2022-12-18T11:49:35;3.00;90.50
70074;DHT22;57445;51.058;3.698;2022-12-18T11:52:09;3.10;89.90
70074;DHT22;57445;51.058;3.698;2022-12-18T11:54:37;3.10;90.10
70074;DHT22;57445;51.058;3.698;2022-12-18T11:57:07;3.00;90.20
70074;DHT22;57445;51.058;3.698;2022-12-18T11:59:37;2.90;90.20
70074;DHT22;57445;51.058;3.698;2022-12-18T12:02:17;3.00;90.10
70074;DHT22;57445;51.058;3.698;2022-12-18T12:07:42;3.30;89.40
70074;DHT22;57445;51.058;3.698;2022-12-18T12:10:23;3.10;89.70
70074;DHT22;57445;51.058;3.698;2022-12-18T12:13:00;3.20;89.90
70074;DHT22;57445;51.058;3.698;2022-12-18T12:15:39;3.00;90.10
70074;DHT22;57445;51.058;3.698;2022-12-18T12:18:13;3.10;90.00
70074;DHT22;57445;51.058;3.698;2022-12-18T12:20:47;3.10;90.00
70074;DHT22;57445;51.058;3.698;2022-12-18T12:23:20;2.80;90.60
70074;DHT22;57445;51.058;3.698;2022-12-18T12:25:50;3.00;90.50
70074;DHT22;57445;51.058;3.698;2022-12-18T12:28:24;3.00;90.40
70074;DHT22;57445;51.058;3.698;2022-12-18T12:30:57;3.30;90.20
70074;DHT22;57445;51.058;3.698;2022-12-18T12:33:31;3.50;90.00
70074;DHT22;57445;51.058;3.698;2022-12-18T12:36:04;3.50;90.10
70074;DHT22;57445;51.058;3.698;2022-12-18T12:38:40;3.80;89.40
70074;DHT22;57445;51.058;3.698;2022-12-18T12:41:09;3.90;88.70
70074;DHT22;57445;51.058;3.698;2022-12-18T12:44:04;4.10;88.50
70074;DHT22;57445;51.058;3.698;2022-12-18T12:46:37;4.00;88.40
70074;DHT22;57445;51.058;3.698;2022-12-18T12:49:12;3.90;89.10
70074;DHT22;57445;51.058;3.698;2022-12-18T12:51:40;3.80;88.90
70074;DHT22;57445;51.058;3.698;2022-12-18T12:54:11;3.80;89.20
70074;DHT22;57445;51.058;3.698;2022-12-18T12:56:42;3.50;90.00
70074;DHT22;57445;51.058;3.698;2022-12-18T12:59:19;3.60;90.10
70074;DHT22;57445;51.058;3.698;2022-12-18T13:01:56;3.60;89.10
70074;DHT22;57445;51.058;3.698;2022-12-18T13:04:31;3.70;90.00
70074;DHT22;57445;51.058;3.698;2022-12-18T13:07:08;3.70;90.20
70074;DHT22;57445;51.058;3.698;2022-12-18T13:10:10;3.70;90.10
70074;DHT22;57445;51.058;3.698;2022-12-18T13:12:31;3.60;90.50
70074;DHT22;57445;51.058;3.698;2022-12-18T13:15:20;3.50;90.40
70074;DHT22;57445;51.058;3.698;2022-12-18T13:18:14;3.50;90.70
70074;DHT22;57445;51.058;3.698;2022-12-18T13:20:43;3.30;90.70
70074;DHT22;57445;51.058;3.698;2022-12-18T13:23:28;3.50;90.60
70074;DHT22;57445;51.058;3.698;2022-12-18T13:28:51;3.50;90.80
70074;DHT22;57445;51.058;3.698;2022-12-18T13:34:09;3.60;90.50
70074;DHT22;57445;51.058;3.698;2022-12-18T13:36:45;3.40;90.70
70074;DHT22;57445;51.058;3.698;2022-12-18T13:42:21;3.30;91.10
70074;DHT22;57445;51.058;3.698;2022-12-18T13:44:56;3.30;91.10
70074;DHT22;57445;51.058;3.698;2022-12-18T13:47:31;3.30;90.60
70074;DHT22;57445;51.058;3.698;2022-12-18T13:49:59;3.30;90.70
70074;DHT22;57445;51.058;3.698;2022-12-18T13:52:27;3.40;90.90
70074;DHT22;57445;51.058;3.698;2022-12-18T13:54:55;3.50;90.50
70074;DHT22;57445;51.058;3.698;2022-12-18T13:57:28;3.40;90.60
70074;DHT22;57445;51.058;3.698;2022-12-18T13:59:59;3.20;90.80
70074;DHT22;57445;51.058;3.698;2022-12-18T14:02:44;3.40;90.50
70074;DHT22;57445;51.058;3.698;2022-12-18T14:05:21;3.60;90.30
70074;DHT22;57445;51.058;3.698;2022-12-18T14:07:48;3.50;90.50
70074;DHT22;57445;51.058;3.698;2022-12-18T14:10:16;3.70;90.20
70074;DHT22;57445;51.058;3.698;2022-12-18T14:12:45;3.60;90.50
70074;DHT22;57445;51.058;3.698;2022-12-18T14:15:30;3.50;90.30
70074;DHT22;57445;51.058;3.698;2022-12-18T14:18:09;3.50;90.00
70074;DHT22;57445;51.058;3.698;2022-12-18T14:20:41;3.50;90.20
70074;DHT22;57445;51.058;3.698;2022-12-18T14:23:30;3.40;90.40
70074;DHT22;57445;51.058;3.698;2022-12-18T14:25:57;3.60;90.20
70074;DHT22;57445;51.058;3.698;2022-12-18T14:28:25;3.90;90.00
70074;DHT22;57445;51.058;3.698;2022-12-18T14:30:59;3.60;90.20
70074;DHT22;57445;51.058;3.698;2022-12-18T14:33:31;3.50;90.50
70074;DHT22;57445;51.058;3.698;2022-12-18T14:36:04;3.50;90.40
70074;DHT22;57445;51.058;3.698;2022-12-18T14:38:32;3.30;90.70
70074;DHT22;57445;51.058;3.698;2022-12-18T14:41:05;3.40;90.80
70074;DHT22;57445;51.058;3.698;2022-12-18T14:43:34;3.30;90.70
70074;DHT22;57445;51.058;3.698;2022-12-18T14:46:03;3.40;90.60
70074;DHT22;57445;51.058;3.698;2022-12-18T14:48:36;3.50;90.60
70074;DHT22;57445;51.058;3.698;2022-12-18T14:51:05;3.70;90.00
70074;DHT22;57445;51.058;3.698;2022-12-18T14:53:37;3.50;90.40
70074;DHT22;57445;51.058;3.698;2022-12-18T14:56:14;3.60;90.60
70074;DHT22;57445;51.058;3.698;2022-12-18T14:58:48;3.30;91.20
70074;DHT22;57445;51.058;3.698;2022-12-18T15:01:23;3.40;90.90
70074;DHT22;57445;51.058;3.698;2022-12-18T15:03:51;3.40;90.90
70074;DHT22;57445;51.058;3.698;2022-12-18T15:06:24;3.30;90.90
70074;DHT22;57445;51.058;3.698;2022-12-18T15:08:52;3.10;91.20
70074;DHT22;57445;51.058;3.698;2022-12-18T15:11:27;3.20;91.00
70074;DHT22;57445;51.058;3.698;2022-12-18T15:13:59;3.30;90.70
70074;DHT22;57445;51.058;3.698;2022-12-18T15:16:29;3.30;90.90
70074;DHT22;57445;51.058;3.698;2022-12-18T15:18:56;3.50;90.70
70074;DHT22;57445;51.058;3.698;2022-12-18T15:21:24;3.50;90.70
70074;DHT22;57445;51.058;3.698;2022-12-18T15:23:55;4.00;90.70
70074;DHT22;57445;51.058;3.698;2022-12-18T15:26:25;3.60;90.60
70074;DHT22;57445;51.058;3.698;2022-12-18T15:29:15;3.40;90.70
70074;DHT22;57445;51.058;3.698;2022-12-18T15:31:46;3.10;91.20
70074;DHT22;57445;51.058;3.698;2022-12-18T15:34:24;3.00;91.70
70074;DHT22;57445;51.058;3.698;2022-12-18T15:36:52;3.20;91.60
70074;DHT22;57445;51.058;3.698;2022-12-18T15:39:20;3.30;91.50
70074;DHT22;57445;51.058;3.698;2022-12-18T15:41:47;3.20;91.50
70074;DHT22;57445;51.058;3.698;2022-12-18T15:44:37;3.30;91.30
70074;DHT22;57445;51.058;3.698;2022-12-18T15:47:11;3.20;91.50
70074;DHT22;57445;51.058;3.698;2022-12-18T15:49:39;3.50;91.40
70074;DHT22;57445;51.058;3.698;2022-12-18T15:52:11;3.60;90.90
70074;DHT22;57445;51.058;3.698;2022-12-18T15:54:44;3.70;90.70
70074;DHT22;57445;51.058;3.698;2022-12-18T15:57:29;3.70;90.80
70074;DHT22;57445;51.058;3.698;2022-12-18T15:59:56;3.70;90.80
70074;DHT22;57445;51.058;3.698;2022-12-18T16:02:26;3.80;90.50
70074;DHT22;57445;51.058;3.698;2022-12-18T16:04:58;3.80;90.40
70074;DHT22;57445;51.058;3.698;2022-12-18T16:07:30;3.90;90.00
70074;DHT22;57445;51.058;3.698;2022-12-18T16:10:03;3.70;90.40
70074;DHT22;57445;51.058;3.698;2022-12-18T16:12:31;3.50;90.70
70074;DHT22;57445;51.058;3.698;2022-12-18T16:14:58;3.50;91.40
70074;DHT22;57445;51.058;3.698;2022-12-18T16:17:27;3.50;91.00
70074;DHT22;57445;51.058;3.698;2022-12-18T16:19:55;3.70;90.70
70074;DHT22;57445;51.058;3.698;2022-12-18T16:22:24;3.60;90.70
70074;DHT22;57445;51.058;3.698;2022-12-18T16:24:59;3.90;90.40